createdAt,value
2019-04-03T00:00:27.512Z,12.00
2019-04-03T00:02:22.361Z,12.00
2019-04-03T00:04:16.932Z,12.00
2019-04-03T00:06:11.389Z,12.00
2019-04-03T00:08:07.720Z,11.90
2019-04-03T00:10:02.369Z,11.90
2019-04-03T00:11:57.491Z,11.80
2019-04-03T00:13:52.399Z,11.80
2019-04-03T00:15:46.988Z,11.80
2019-04-03T00:17:41.915Z,11.80
2019-04-03T00:19:36.720Z,11.70
2019-04-03T00:21:31.483Z,11.70
2019-04-03T00:23:25.451Z,11.60
2019-04-03T00:25:22.386Z,11.70
2019-04-03T00:27:16.956Z,11.60
2019-04-03T00:29:11.571Z,11.60
2019-04-03T00:31:06.188Z,11.50
2019-04-03T00:33:00.788Z,11.50
2019-04-03T00:34:55.346Z,11.50
2019-04-03T00:36:51.504Z,11.40
2019-04-03T00:38:45.953Z,11.40
2019-04-03T00:40:40.072Z,11.40
2019-04-03T00:42:34.463Z,11.40
2019-04-03T00:44:28.769Z,11.40
2019-04-03T00:46:24.359Z,11.50
2019-04-03T00:48:20.885Z,11.60
2019-04-03T00:50:15.296Z,11.60
2019-04-03T00:52:10.125Z,11.60
2019-04-03T00:54:04.411Z,11.60
2019-04-03T00:55:59.214Z,11.60
2019-04-03T00:57:54.776Z,11.60
2019-04-03T00:59:50.042Z,11.60
2019-04-03T01:01:44.058Z,11.50
2019-04-03T01:03:38.694Z,11.50
2019-04-03T01:05:33.257Z,11.50
2019-04-03T01:07:29.219Z,11.50
2019-04-03T01:09:23.905Z,11.60
2019-04-03T01:11:18.767Z,11.60
2019-04-03T01:13:13.631Z,11.60
2019-04-03T01:15:09.273Z,11.60
2019-04-03T01:17:04.481Z,11.60
2019-04-03T01:18:59.318Z,11.60
2019-04-03T01:20:53.599Z,11.50
2019-04-03T01:22:48.259Z,11.50
2019-04-03T01:24:42.456Z,11.50
2019-04-03T01:26:36.597Z,11.50
2019-04-03T01:28:31.266Z,11.50
2019-04-03T01:30:26.084Z,11.50
2019-04-03T01:32:20.359Z,11.50
2019-04-03T01:34:17.176Z,11.60
2019-04-03T01:36:10.788Z,11.60
2019-04-03T01:38:05.498Z,11.60
2019-04-03T01:40:00.463Z,11.60
2019-04-03T01:41:55.613Z,11.60
2019-04-03T01:43:49.531Z,11.60
2019-04-03T01:45:43.928Z,11.60
2019-04-03T01:47:38.030Z,11.60
2019-04-03T01:49:32.511Z,11.60
2019-04-03T01:51:27.735Z,11.60
2019-04-03T01:53:25.212Z,11.60
2019-04-03T01:55:20.814Z,11.60
2019-04-03T01:57:15.084Z,11.60
2019-04-03T01:59:10.077Z,11.60
2019-04-03T02:01:04.532Z,11.60
2019-04-03T02:03:03.260Z,11.70
2019-04-03T02:05:00.873Z,11.70
2019-04-03T02:06:55.943Z,11.70
2019-04-03T02:08:51.551Z,11.80
2019-04-03T02:10:48.229Z,11.80
2019-04-03T02:12:42.461Z,11.90
2019-04-03T02:14:37.159Z,11.90
2019-04-03T02:16:32.071Z,11.90
2019-04-03T02:18:26.659Z,11.90
2019-04-03T02:20:21.234Z,11.90
2019-04-03T02:22:15.798Z,11.90
2019-04-03T02:24:10.408Z,11.90
2019-04-03T02:26:05.362Z,11.90
2019-04-03T02:28:00.210Z,11.90
2019-04-03T02:29:55.039Z,11.80
2019-04-03T02:31:51.768Z,11.80
2019-04-03T02:33:45.544Z,11.80
2019-04-03T02:35:41.036Z,11.70
2019-04-03T02:37:36.191Z,11.70
2019-04-03T02:39:31.101Z,11.70
2019-04-03T02:41:25.957Z,11.60
2019-04-03T02:43:21.125Z,11.60
2019-04-03T02:45:16.485Z,11.50
2019-04-03T02:47:11.341Z,11.50
2019-04-03T02:49:09.384Z,11.50
2019-04-03T02:51:01.758Z,11.40
2019-04-03T02:52:58.037Z,11.40
2019-04-03T02:54:52.557Z,11.30
2019-04-03T02:56:47.076Z,11.30
2019-04-03T02:58:41.373Z,11.20
2019-04-03T03:00:35.720Z,11.20
2019-04-03T03:02:30.448Z,11.10
2019-04-03T03:04:25.355Z,11.10
2019-04-03T03:06:20.013Z,11.20
2019-04-03T03:08:15.007Z,11.10
2019-04-03T03:10:09.673Z,11.20
2019-04-03T03:12:04.837Z,11.20
2019-04-03T03:14:00.255Z,11.20
2019-04-03T03:15:54.709Z,11.20
2019-04-03T03:17:54.608Z,11.20
2019-04-03T03:19:48.376Z,11.30
2019-04-03T03:21:44.700Z,11.30
2019-04-03T03:23:39.137Z,11.30
2019-04-03T03:25:34.636Z,11.30
2019-04-03T03:27:30.058Z,11.30
2019-04-03T03:29:26.979Z,11.30
2019-04-03T03:31:44.368Z,11.30
2019-04-03T03:33:32.639Z,11.30
2019-04-03T03:35:16.906Z,11.30
2019-04-03T03:37:12.725Z,11.20
2019-04-03T03:39:10.410Z,11.20
2019-04-03T03:41:03.797Z,11.10
2019-04-03T03:43:03.568Z,11.10
2019-04-03T03:44:58.188Z,11.10
2019-04-03T03:46:54.553Z,11.00
2019-04-03T03:48:48.616Z,11.00
2019-04-03T03:50:45.807Z,10.90
2019-04-03T03:52:39.993Z,10.80
2019-04-03T03:54:35.005Z,10.80
2019-04-03T03:56:32.309Z,10.70
2019-04-03T03:58:27.037Z,10.70
2019-04-03T04:00:23.630Z,10.60
2019-04-03T04:02:17.607Z,10.60
2019-04-03T04:04:14.169Z,10.60
2019-04-03T04:06:08.003Z,10.60
2019-04-03T04:08:02.605Z,10.50
2019-04-03T04:09:57.329Z,10.50
2019-04-03T04:11:52.859Z,10.50
2019-04-03T04:13:48.509Z,10.50
2019-04-03T04:15:44.993Z,10.50
2019-04-03T04:17:40.919Z,10.50
2019-04-03T04:19:36.683Z,10.50
2019-04-03T04:21:32.035Z,10.50
2019-04-03T04:23:27.280Z,10.50
2019-04-03T04:25:23.972Z,10.40
2019-04-03T04:27:18.926Z,10.40
2019-04-03T04:29:13.700Z,10.40
2019-04-03T04:31:08.765Z,10.40
2019-04-03T04:33:03.165Z,10.40
2019-04-03T04:34:59.133Z,10.30
2019-04-03T04:36:55.433Z,10.30
2019-04-03T04:38:50.767Z,10.30
2019-04-03T04:40:44.859Z,10.20
2019-04-03T04:42:39.980Z,10.10
2019-04-03T04:44:34.606Z,10.10
2019-04-03T04:46:28.625Z,10.00
2019-04-03T04:48:23.261Z,10.00
2019-04-03T04:50:25.427Z,10.00
2019-04-03T04:52:20.559Z,9.90
2019-04-03T04:54:15.550Z,9.90
2019-04-03T04:56:10.806Z,9.80
2019-04-03T04:58:05.667Z,9.90
2019-04-03T04:59:59.920Z,9.80
2019-04-03T05:01:53.982Z,9.80
2019-04-03T05:03:48.494Z,9.80
2019-04-03T05:05:43.548Z,9.80
2019-04-03T05:07:38.013Z,9.80
2019-04-03T05:09:34.654Z,9.80
2019-04-03T05:11:28.341Z,9.80
2019-04-03T05:13:23.309Z,9.90
2019-04-03T05:15:21.893Z,9.90
2019-04-03T05:17:13.858Z,9.90
2019-04-03T05:19:10.441Z,9.90
2019-04-03T05:21:04.196Z,10.00
2019-04-03T05:22:59.332Z,10.00
2019-04-03T05:24:54.283Z,10.00
2019-04-03T05:26:48.530Z,10.10
2019-04-03T05:28:54.342Z,10.20
2019-04-03T05:30:39.152Z,10.20
2019-04-03T05:32:33.118Z,10.30
2019-04-03T05:34:28.059Z,10.40
2019-04-03T05:36:22.927Z,10.50
2019-04-03T05:38:16.856Z,10.50
2019-04-03T05:40:11.287Z,10.60
2019-04-03T05:42:05.956Z,10.60
2019-04-03T05:44:02.436Z,10.70
2019-04-03T05:45:57.103Z,10.70
2019-04-03T05:47:51.843Z,10.80
2019-04-03T05:49:47.522Z,10.80
2019-04-03T05:51:49.239Z,10.90
2019-04-03T05:53:44.095Z,11.00
2019-04-03T05:55:40.602Z,11.00
2019-04-03T05:57:35.667Z,11.10
2019-04-03T05:59:32.692Z,11.10
2019-04-03T06:01:26.002Z,11.20
2019-04-03T06:03:21.904Z,11.30
2019-04-03T06:05:19.275Z,11.30
2019-04-03T06:07:13.891Z,11.40
2019-04-03T06:09:08.796Z,11.40
2019-04-03T06:11:07.547Z,11.50
2019-04-03T06:13:00.654Z,11.50
2019-04-03T06:14:55.623Z,11.60
2019-04-03T06:16:50.719Z,11.60
2019-04-03T06:18:47.515Z,11.70
2019-04-03T06:20:42.597Z,11.90
2019-04-03T06:22:37.348Z,12.00
2019-04-03T06:24:31.413Z,12.10
2019-04-03T06:26:26.363Z,12.20
2019-04-03T06:28:22.289Z,12.30
2019-04-03T06:30:17.255Z,12.40
2019-04-03T06:32:12.335Z,12.50
2019-04-03T06:34:07.662Z,12.50
2019-04-03T06:36:02.907Z,12.50
2019-04-03T06:37:58.138Z,12.50
2019-04-03T06:39:53.184Z,12.50
2019-04-03T06:41:48.165Z,12.60
2019-04-03T06:43:43.166Z,12.60
2019-04-03T06:45:37.404Z,12.60
2019-04-03T06:47:33.039Z,12.70
2019-04-03T06:49:28.258Z,12.70
2019-04-03T06:51:23.640Z,12.70
2019-04-03T06:53:18.553Z,12.70
2019-04-03T06:55:13.380Z,12.70
2019-04-03T06:57:09.053Z,12.70
2019-04-03T06:59:04.941Z,12.80
2019-04-03T07:01:04.568Z,12.80
2019-04-03T07:02:59.573Z,12.90
2019-04-03T07:04:54.205Z,12.90
2019-04-03T07:06:48.972Z,13.00
2019-04-03T07:08:47.100Z,13.10
2019-04-03T07:10:41.177Z,13.10
2019-04-03T07:12:36.447Z,13.20
2019-04-03T07:14:31.707Z,13.20
2019-04-03T07:16:26.784Z,13.20
2019-04-03T07:18:21.600Z,13.20
2019-04-03T07:20:19.746Z,13.20
2019-04-03T07:22:12.767Z,13.20
2019-04-03T07:24:07.687Z,13.40
2019-04-03T07:26:04.711Z,13.40
2019-04-03T07:27:59.688Z,13.40
2019-04-03T07:29:54.904Z,13.30
2019-04-03T07:31:49.559Z,13.30
2019-04-03T07:33:45.165Z,13.30
2019-04-03T07:35:42.756Z,13.30
2019-04-03T07:37:37.911Z,13.40
2019-04-03T07:39:32.688Z,13.50
2019-04-03T07:41:27.380Z,13.60
2019-04-03T07:43:22.526Z,13.70
2019-04-03T07:45:17.256Z,13.90
2019-04-03T07:47:12.989Z,14.10
2019-04-03T07:49:08.990Z,14.20
2019-04-03T07:51:05.580Z,14.30
2019-04-03T07:52:59.947Z,14.30
2019-04-03T07:54:56.631Z,14.30
2019-04-03T07:56:51.032Z,14.30
2019-04-03T07:58:45.769Z,14.40
2019-04-03T08:00:40.026Z,14.40
2019-04-03T08:02:35.211Z,14.50
2019-04-03T08:04:29.974Z,14.60
2019-04-03T08:06:24.508Z,14.80
2019-04-03T08:08:19.317Z,14.90
2019-04-03T08:10:14.634Z,15.00
2019-04-03T08:12:09.087Z,15.10
2019-04-03T08:14:04.566Z,15.20
2019-04-03T08:15:59.614Z,15.20
2019-04-03T08:17:56.773Z,15.30
2019-04-03T08:19:50.037Z,15.30
2019-04-03T08:21:44.879Z,15.30
2019-04-03T08:23:39.221Z,15.40
2019-04-03T08:25:34.166Z,15.50
2019-04-03T08:27:28.985Z,15.50
2019-04-03T08:29:23.276Z,15.60
2019-04-03T08:31:17.932Z,15.80
2019-04-03T08:33:17.408Z,16.00
2019-04-03T08:35:20.376Z,16.20
2019-04-03T08:37:09.634Z,16.30
2019-04-03T08:39:03.495Z,16.20
2019-04-03T08:40:59.362Z,16.30
2019-04-03T08:42:59.513Z,16.60
2019-04-03T08:44:52.895Z,16.60
2019-04-03T08:46:47.812Z,16.80
2019-04-03T08:48:42.570Z,17.00
2019-04-03T08:50:37.139Z,17.20
2019-04-03T08:52:31.414Z,17.30
2019-04-03T08:54:26.431Z,17.30
2019-04-03T08:56:20.459Z,17.30
2019-04-03T08:58:16.024Z,17.20
2019-04-03T09:00:17.327Z,17.40
2019-04-03T09:02:13.322Z,17.60
2019-04-03T09:04:08.005Z,17.90
2019-04-03T09:06:02.741Z,18.00
2019-04-03T09:07:57.448Z,18.10
2019-04-03T09:09:51.900Z,18.20
2019-04-03T09:11:46.905Z,18.20
2019-04-03T09:13:41.716Z,18.20
2019-04-03T09:15:36.164Z,18.20
2019-04-03T09:17:30.135Z,18.30
2019-04-03T09:19:25.074Z,18.30
2019-04-03T09:21:19.729Z,18.30
2019-04-03T09:23:14.761Z,18.60
2019-04-03T09:25:10.029Z,18.60
2019-04-03T09:27:54.302Z,18.70
2019-04-03T09:29:53.949Z,18.80
2019-04-03T09:31:50.659Z,18.80
2019-04-03T09:33:45.040Z,18.80
2019-04-03T09:35:42.669Z,19.00
2019-04-03T09:37:38.021Z,18.90
2019-04-03T09:39:32.231Z,19.10
2019-04-03T09:41:26.899Z,19.30
2019-04-03T09:43:23.129Z,19.40
2019-04-03T09:45:18.156Z,19.40
2019-04-03T09:47:12.848Z,19.30
2019-04-03T09:49:08.459Z,19.20
2019-04-03T09:51:03.826Z,19.00
2019-04-03T09:53:01.621Z,19.00
2019-04-03T09:54:54.317Z,19.10
2019-04-03T09:56:57.824Z,19.10
2019-04-03T09:58:45.449Z,19.20
2019-04-03T10:00:41.968Z,19.40
2019-04-03T10:02:36.356Z,19.60
2019-04-03T10:04:31.228Z,19.60
2019-04-03T10:06:25.481Z,19.90
2019-04-03T10:08:20.549Z,19.80
2019-04-03T10:10:16.555Z,20.00
2019-04-03T10:12:11.415Z,20.10
2019-04-03T10:14:07.264Z,20.10
2019-04-03T10:16:03.965Z,20.10
2019-04-03T10:17:57.026Z,20.20
2019-04-03T10:19:52.683Z,20.20
2019-04-03T10:21:47.636Z,20.40
2019-04-03T10:23:42.260Z,20.40
2019-04-03T10:25:38.043Z,20.40
2019-04-03T10:27:32.635Z,20.50
2019-04-03T10:29:27.754Z,20.80
2019-04-03T10:31:24.259Z,20.80
2019-04-03T10:33:19.121Z,20.90
2019-04-03T10:35:14.470Z,20.80
2019-04-03T10:37:09.210Z,20.60
2019-04-03T10:39:05.103Z,20.60
2019-04-03T10:40:59.819Z,20.60
2019-04-03T10:42:54.078Z,20.60
2019-04-03T10:44:49.017Z,20.60
2019-04-03T10:46:44.406Z,20.60
2019-04-03T10:48:39.512Z,20.80
2019-04-03T10:50:36.487Z,20.90
2019-04-03T10:52:30.569Z,20.80
2019-04-03T10:54:29.409Z,20.60
2019-04-03T10:56:24.579Z,20.60
2019-04-03T10:58:22.786Z,21.40
2019-04-03T11:00:18.050Z,21.70
2019-04-03T11:02:13.061Z,21.70
2019-04-03T11:04:08.116Z,21.60
2019-04-03T11:06:03.254Z,21.70
2019-04-03T11:07:58.161Z,21.70
2019-04-03T11:09:53.210Z,21.80
2019-04-03T11:11:47.919Z,21.70
2019-04-03T11:13:42.615Z,21.80
2019-04-03T11:15:36.804Z,21.50
2019-04-03T11:17:31.798Z,21.20
2019-04-03T11:19:26.492Z,21.10
2019-04-03T11:21:21.650Z,21.20
2019-04-03T11:23:16.466Z,21.20
2019-04-03T11:25:15.182Z,21.20
2019-04-03T11:27:10.260Z,21.30
2019-04-03T11:29:05.127Z,21.50
2019-04-03T11:31:01.459Z,21.50
2019-04-03T11:32:56.954Z,21.70
2019-04-03T11:34:53.936Z,22.00
2019-04-03T11:36:49.313Z,22.10
2019-04-03T11:38:43.694Z,22.30
2019-04-03T11:40:37.940Z,22.30
2019-04-03T11:42:32.734Z,22.20
2019-04-03T11:44:27.525Z,22.40
2019-04-03T11:46:22.302Z,22.20
2019-04-03T11:48:18.459Z,22.10
2019-04-03T11:50:18.050Z,22.30
2019-04-03T11:52:13.001Z,22.50
2019-04-03T11:54:08.800Z,22.10
2019-04-03T11:56:03.809Z,22.30
2019-04-03T11:57:59.259Z,21.90
2019-04-03T11:59:55.398Z,21.80
2019-04-03T12:01:49.660Z,21.90
2019-04-03T12:03:45.258Z,22.00
2019-04-03T12:05:40.462Z,22.10
2019-04-03T12:07:35.024Z,22.30
2019-04-03T12:09:31.673Z,22.50
2019-04-03T12:11:24.869Z,22.40
2019-04-03T12:13:20.968Z,22.50
2019-04-03T12:15:16.347Z,22.50
2019-04-03T12:17:11.448Z,22.40
2019-04-03T12:19:07.238Z,22.20
2019-04-03T12:21:01.992Z,22.00
2019-04-03T12:22:56.959Z,22.10
2019-04-03T12:24:51.768Z,22.30
2019-04-03T12:26:49.525Z,22.10
2019-04-03T12:28:44.753Z,21.80
2019-04-03T12:30:40.688Z,21.50
2019-04-03T12:32:39.285Z,21.40
2019-04-03T12:34:32.023Z,21.50
2019-04-03T12:36:27.813Z,21.50
2019-04-03T12:38:23.425Z,21.90
2019-04-03T12:40:18.666Z,22.50
2019-04-03T12:42:12.997Z,22.90
2019-04-03T12:44:07.948Z,23.40
2019-04-03T12:46:03.103Z,23.70
2019-04-03T12:48:02.157Z,23.90
2019-04-03T12:49:57.324Z,24.20
2019-04-03T12:51:51.994Z,24.20
2019-04-03T12:53:48.446Z,24.20
2019-04-03T12:55:43.072Z,24.30
2019-04-03T12:57:39.261Z,24.30
2019-04-03T12:59:34.099Z,24.10
2019-04-03T13:01:29.024Z,23.80
2019-04-03T13:03:25.760Z,23.70
2019-04-03T13:05:20.627Z,23.70
2019-04-03T13:07:15.148Z,23.50
2019-04-03T13:09:11.526Z,23.30
2019-04-03T13:11:06.165Z,23.60
2019-04-03T13:13:01.444Z,23.80
2019-04-03T13:14:56.626Z,24.10
2019-04-03T13:16:51.600Z,24.20
2019-04-03T13:18:45.734Z,24.50
2019-04-03T13:20:40.986Z,24.40
2019-04-03T13:22:35.738Z,24.50
2019-04-03T13:24:30.413Z,24.40
2019-04-03T13:26:25.887Z,24.50
2019-04-03T13:28:20.568Z,24.30
2019-04-03T13:30:15.535Z,23.90
2019-04-03T13:32:09.926Z,23.30
2019-04-03T13:34:04.994Z,23.00
2019-04-03T13:35:59.747Z,22.70
2019-04-03T13:37:55.577Z,22.50
2019-04-03T13:39:51.971Z,22.30
2019-04-03T13:41:47.600Z,22.30
2019-04-03T13:43:41.772Z,22.20
2019-04-03T13:45:36.998Z,22.10
2019-04-03T13:47:31.713Z,22.00
2019-04-03T13:49:29.889Z,21.80
2019-04-03T13:51:24.151Z,21.70
2019-04-03T13:53:20.979Z,21.40
2019-04-03T13:55:15.925Z,21.30
2019-04-03T13:57:13.399Z,21.20
2019-04-03T13:59:06.877Z,21.20
2019-04-03T14:01:03.054Z,21.20
2019-04-03T14:02:58.250Z,21.30
2019-04-03T14:04:56.093Z,21.30
2019-04-03T14:06:48.849Z,21.20
2019-04-03T14:08:45.260Z,21.20
2019-04-03T14:10:39.593Z,21.10
2019-04-03T14:12:36.643Z,20.90
2019-04-03T14:14:29.781Z,21.00
2019-04-03T14:16:24.414Z,20.90
2019-04-03T14:18:19.138Z,20.90
2019-04-03T14:20:14.176Z,20.90
2019-04-03T14:22:09.222Z,20.90
2019-04-03T14:24:07.066Z,20.80
2019-04-03T14:26:05.247Z,20.80
2019-04-03T14:27:56.063Z,20.80
2019-04-03T14:29:50.635Z,20.80
2019-04-03T14:31:47.964Z,20.70
2019-04-03T14:33:45.607Z,20.60
2019-04-03T14:35:48.896Z,20.60
2019-04-03T14:37:34.050Z,20.40
2019-04-03T14:39:28.980Z,20.40
2019-04-03T14:41:23.143Z,20.30
2019-04-03T14:43:17.577Z,20.20
2019-04-03T14:45:14.625Z,20.10
2019-04-03T14:47:09.991Z,20.10
2019-04-03T14:49:07.736Z,20.00
2019-04-03T14:51:01.991Z,19.90
2019-04-03T14:52:56.114Z,19.80
2019-04-03T14:54:50.931Z,19.80
2019-04-03T14:56:45.878Z,19.80
2019-04-03T14:58:40.328Z,19.80
2019-04-03T15:00:35.677Z,19.80
2019-04-03T15:02:30.618Z,19.80
2019-04-03T15:04:25.343Z,19.80
2019-04-03T15:06:20.012Z,19.70
2019-04-03T15:08:15.019Z,19.60
2019-04-03T15:10:11.664Z,19.60
2019-04-03T15:12:07.019Z,19.70
2019-04-03T15:14:02.015Z,19.70
2019-04-03T15:15:58.884Z,19.60
2019-04-03T15:17:52.234Z,19.50
2019-04-03T15:19:46.493Z,19.50
2019-04-03T15:21:40.962Z,19.40
2019-04-03T15:23:40.181Z,19.30
2019-04-03T15:25:32.590Z,19.30
2019-04-03T15:27:28.114Z,19.20
2019-04-03T15:29:23.676Z,19.10
2019-04-03T15:31:18.372Z,18.90
2019-04-03T15:33:13.820Z,18.90
2019-04-03T15:35:08.284Z,18.80
2019-04-03T15:37:03.066Z,18.80
2019-04-03T15:38:59.898Z,18.80
2019-04-03T15:40:57.540Z,18.70
2019-04-03T15:42:50.640Z,18.60
2019-04-03T15:44:45.487Z,18.60
2019-04-03T15:46:40.425Z,18.50
2019-04-03T15:48:35.595Z,18.60
2019-04-03T15:50:32.147Z,18.60
2019-04-03T15:52:26.413Z,18.50
2019-04-03T15:54:21.473Z,18.50
2019-04-03T15:56:16.798Z,18.60
2019-04-03T15:58:10.857Z,18.50
2019-04-03T16:00:07.902Z,18.60
2019-04-03T16:02:02.104Z,18.50
2019-04-03T16:03:58.939Z,18.50
2019-04-03T16:05:52.128Z,18.40
2019-04-03T16:07:47.324Z,18.40
2019-04-03T16:09:42.504Z,18.40
2019-04-03T16:11:38.085Z,18.40
2019-04-03T16:13:33.076Z,18.40
2019-04-03T16:15:27.764Z,18.40
2019-04-03T16:17:22.702Z,18.40
2019-04-03T16:19:16.767Z,18.30
2019-04-03T16:21:11.896Z,18.30
2019-04-03T16:23:07.135Z,18.30
2019-04-03T16:25:02.141Z,18.30
2019-04-03T16:26:57.669Z,18.20
2019-04-03T16:28:52.525Z,18.10
2019-04-03T16:30:52.199Z,18.00
2019-04-03T16:32:43.591Z,17.90
2019-04-03T16:34:40.829Z,17.90
2019-04-03T16:36:35.950Z,17.90
2019-04-03T16:38:30.169Z,17.90
2019-04-03T16:40:25.390Z,17.80
2019-04-03T16:42:19.504Z,17.80
2019-04-03T16:44:14.326Z,17.70
2019-04-03T16:46:10.963Z,17.70
2019-04-03T16:48:05.380Z,17.70
2019-04-03T16:50:00.354Z,17.60
2019-04-03T16:51:56.126Z,17.50
2019-04-03T16:53:51.805Z,17.40
2019-04-03T16:55:47.509Z,17.40
2019-04-03T16:57:42.118Z,17.40
2019-04-03T16:59:37.327Z,17.30
2019-04-03T17:01:32.024Z,17.20
2019-04-03T17:03:31.747Z,17.20
2019-04-03T17:05:23.695Z,17.10
2019-04-03T17:07:20.577Z,17.10
2019-04-03T17:09:14.899Z,17.00
2019-04-03T17:11:12.117Z,16.90
2019-04-03T17:13:05.835Z,16.90
2019-04-03T17:15:00.507Z,16.80
2019-04-03T17:16:55.243Z,16.80
2019-04-03T17:18:50.451Z,16.70
2019-04-03T17:20:45.695Z,16.70
2019-04-03T17:22:41.878Z,16.60
2019-04-03T17:24:43.514Z,16.60
2019-04-03T17:26:33.223Z,16.60
2019-04-03T17:28:28.982Z,16.60
2019-04-03T17:30:25.080Z,16.50
2019-04-03T17:32:20.933Z,16.50
2019-04-03T17:34:15.881Z,16.40
2019-04-03T17:36:10.931Z,16.30
2019-04-03T17:38:05.582Z,16.20
2019-04-03T17:40:00.773Z,16.20
2019-04-03T17:41:55.789Z,16.10
2019-04-03T17:43:55.717Z,16.00
2019-04-03T17:45:48.075Z,16.00
2019-04-03T17:47:45.704Z,15.90
2019-04-03T17:49:40.447Z,15.90
2019-04-03T17:51:34.949Z,15.80
2019-04-03T17:53:29.901Z,15.70
2019-04-03T17:55:26.216Z,15.70
2019-04-03T17:57:21.978Z,15.60
2019-04-03T17:59:19.041Z,15.60
2019-04-03T18:01:13.958Z,15.50
2019-04-03T18:03:09.107Z,15.50
2019-04-03T18:05:06.487Z,15.50
2019-04-03T18:07:01.770Z,15.50
2019-04-03T18:08:57.069Z,15.40
2019-04-03T18:10:52.443Z,15.30
2019-04-03T18:12:47.693Z,15.30
2019-04-03T18:14:45.186Z,15.20
2019-04-03T18:16:44.007Z,15.20
2019-04-03T18:18:39.475Z,15.10
2019-04-03T18:20:34.258Z,15.10
2019-04-03T18:22:30.024Z,15.10
2019-04-03T18:24:26.227Z,15.00
2019-04-03T18:26:21.174Z,15.00
2019-04-03T18:28:15.192Z,14.90
2019-04-03T18:30:12.711Z,14.80
2019-04-03T18:32:07.877Z,14.80
2019-04-03T18:34:02.315Z,14.70
2019-04-03T18:35:58.040Z,14.60
2019-04-03T18:37:53.288Z,14.60
2019-04-03T18:39:51.178Z,14.60
2019-04-03T18:41:47.430Z,14.50
2019-04-03T18:43:40.690Z,14.50
2019-04-03T18:45:36.333Z,14.40
2019-04-03T18:47:40.429Z,14.40
2019-04-03T18:49:26.955Z,14.30
2019-04-03T18:51:21.865Z,14.30
2019-04-03T18:53:17.046Z,14.30
2019-04-03T18:55:14.617Z,14.20
2019-04-03T18:57:08.101Z,14.20
2019-04-03T18:59:02.561Z,14.10
2019-04-03T19:00:56.495Z,14.10
2019-04-03T19:02:50.688Z,14.10
2019-04-03T19:04:45.593Z,14.00
2019-04-03T19:06:40.426Z,14.10
2019-04-03T19:08:35.538Z,14.00
2019-04-03T19:10:30.583Z,14.00
2019-04-03T19:12:35.015Z,14.00
2019-04-03T19:14:27.002Z,13.90
2019-04-03T19:16:28.699Z,13.90
2019-04-03T19:18:19.694Z,13.80
2019-04-03T19:20:14.912Z,13.80
2019-04-03T19:22:12.280Z,13.80
2019-04-03T19:24:07.327Z,13.70
2019-04-03T19:26:01.706Z,13.70
2019-04-03T19:27:56.275Z,13.70
2019-04-03T19:29:52.565Z,13.70
2019-04-03T19:31:47.655Z,13.70
2019-04-03T19:33:44.632Z,13.70
2019-04-03T19:35:37.779Z,13.60
2019-04-03T19:37:34.084Z,13.60
2019-04-03T19:39:28.856Z,13.60
2019-04-03T19:41:23.833Z,13.50
2019-04-03T19:43:18.890Z,13.50
2019-04-03T19:45:20.633Z,13.40
2019-04-03T19:47:14.104Z,13.40
2019-04-03T19:49:09.695Z,13.30
2019-04-03T19:51:04.288Z,13.30
2019-04-03T19:52:59.619Z,13.20
2019-04-03T19:54:54.551Z,13.20
2019-04-03T19:56:49.745Z,13.30
2019-04-03T19:58:44.389Z,13.20
2019-04-03T20:00:39.439Z,13.20
2019-04-03T20:02:34.459Z,13.20
2019-04-03T20:04:29.352Z,13.20
2019-04-03T20:06:24.982Z,13.10
2019-04-03T20:08:19.430Z,13.10
2019-04-03T20:10:14.766Z,13.00
2019-04-03T20:12:10.101Z,12.90
2019-04-03T20:14:05.668Z,12.70
2019-04-03T20:16:00.682Z,12.50
2019-04-03T20:17:55.472Z,12.20
2019-04-03T20:19:50.350Z,11.90
2019-04-03T20:21:45.204Z,11.50
2019-04-03T20:23:41.895Z,11.20
2019-04-03T20:25:35.790Z,10.90
2019-04-03T20:27:31.906Z,10.60
2019-04-03T20:29:27.801Z,10.40
2019-04-03T20:31:22.476Z,10.20
2019-04-03T20:33:16.551Z,10.00
2019-04-03T20:35:11.554Z,9.80
2019-04-03T20:37:05.661Z,9.60
2019-04-03T20:39:00.615Z,9.40
2019-04-03T20:40:57.212Z,9.20
2019-04-03T20:42:51.817Z,9.10
2019-04-03T20:44:48.644Z,8.90
2019-04-03T20:46:42.904Z,8.70
2019-04-03T20:48:37.244Z,8.60
2019-04-03T20:50:31.670Z,8.50
2019-04-03T20:52:26.326Z,8.40
2019-04-03T20:54:21.915Z,8.30
2019-04-03T20:56:16.992Z,8.20
2019-04-03T20:58:12.079Z,8.10
2019-04-03T21:00:11.357Z,8.00
2019-04-03T21:02:08.264Z,7.90
2019-04-03T21:04:02.016Z,7.80
2019-04-03T21:05:56.457Z,7.80
2019-04-03T21:07:50.479Z,7.70
2019-04-03T21:09:44.654Z,7.70
2019-04-03T21:11:39.509Z,7.70
2019-04-03T21:13:33.899Z,7.70
2019-04-03T21:15:28.448Z,7.70
2019-04-03T21:17:24.065Z,7.60
2019-04-03T21:19:21.264Z,7.60
2019-04-03T21:21:15.126Z,7.60
2019-04-03T21:23:09.974Z,7.60
2019-04-03T21:25:05.435Z,7.50
2019-04-03T21:27:00.398Z,7.50
2019-04-03T21:28:55.378Z,7.50
2019-04-03T21:30:49.629Z,7.40
2019-04-03T21:32:44.299Z,7.40
2019-04-03T21:34:39.211Z,7.40
2019-04-03T21:36:33.470Z,7.40
2019-04-03T21:38:29.683Z,7.40
2019-04-03T21:40:24.479Z,7.40
2019-04-03T21:42:18.602Z,7.50
2019-04-03T21:44:13.499Z,7.50
2019-04-03T21:46:08.975Z,7.50
2019-04-03T21:48:04.710Z,7.50
2019-04-03T21:50:03.514Z,7.50
2019-04-03T21:51:56.027Z,7.50
2019-04-03T21:53:51.752Z,7.50
2019-04-03T21:55:46.563Z,7.50
2019-04-03T21:57:41.590Z,7.50
2019-04-03T21:59:36.713Z,7.50
2019-04-03T22:01:31.075Z,7.50
2019-04-03T22:03:25.806Z,7.40
2019-04-03T22:05:19.975Z,7.40
2019-04-03T22:07:15.114Z,7.40
2019-04-03T22:09:12.926Z,7.40
2019-04-03T22:11:08.093Z,7.40
2019-04-03T22:13:03.367Z,7.30
2019-04-03T22:14:57.914Z,7.30
2019-04-03T22:16:53.199Z,7.30
2019-04-03T22:18:50.586Z,7.30
2019-04-03T22:20:44.964Z,7.30
2019-04-03T22:22:40.303Z,7.30
2019-04-03T22:24:37.537Z,7.20
2019-04-03T22:26:30.959Z,7.10
2019-04-03T22:28:25.662Z,7.10
2019-04-03T22:30:21.762Z,7.10
2019-04-03T22:32:16.311Z,7.00
2019-04-03T22:34:10.880Z,7.00
2019-04-03T22:36:05.536Z,7.00
2019-04-03T22:37:59.403Z,6.90
2019-04-03T22:39:54.220Z,6.90
2019-04-03T22:41:49.326Z,6.90
2019-04-03T22:43:46.188Z,6.90
2019-04-03T22:45:40.277Z,6.80
2019-04-03T22:47:34.932Z,6.80
2019-04-03T22:49:33.648Z,6.80
2019-04-03T22:51:26.624Z,6.80
2019-04-03T22:53:20.891Z,6.80
2019-04-03T22:55:15.926Z,6.80
2019-04-03T22:57:11.667Z,6.80
2019-04-03T22:59:06.623Z,6.80
2019-04-03T23:01:01.452Z,6.80
2019-04-03T23:02:55.995Z,6.80
2019-04-03T23:04:50.420Z,6.80
2019-04-03T23:06:49.399Z,6.80
2019-04-03T23:08:42.226Z,6.80
2019-04-03T23:10:37.184Z,6.80
2019-04-03T23:12:33.364Z,6.90
2019-04-03T23:14:28.412Z,6.80
2019-04-03T23:16:23.109Z,6.90
2019-04-03T23:18:18.108Z,6.90
2019-04-03T23:20:12.978Z,6.80
2019-04-03T23:22:08.225Z,6.80
2019-04-03T23:24:02.524Z,6.80
2019-04-03T23:25:57.171Z,6.70
2019-04-03T23:27:51.816Z,6.70
2019-04-03T23:29:46.830Z,6.70
2019-04-03T23:31:44.655Z,6.60
2019-04-03T23:33:37.332Z,6.50
2019-04-03T23:35:32.518Z,6.50
2019-04-03T23:37:27.372Z,6.40
2019-04-03T23:39:23.620Z,6.30
2019-04-03T23:41:17.623Z,6.20
2019-04-03T23:43:12.572Z,6.20
2019-04-03T23:45:07.815Z,6.10
2019-04-03T23:47:02.101Z,6.00
2019-04-03T23:48:57.283Z,6.00
2019-04-03T23:50:52.714Z,5.90
2019-04-03T23:52:48.464Z,5.90
2019-04-03T23:54:42.881Z,5.80
2019-04-03T23:56:38.903Z,5.80
2019-04-03T23:58:34.280Z,5.70
